Terminal Aerodrome Forecast
Issued by NWS

Home | Current Version | Previous Version | Text Only | Print | Product List | Glossary On
Versions: 1 2 3 4 5 6 7 8 9 10 11 12 13 14 15 16 17 18 19
000
FTUS42 KJAX 232300
TAFCRG
TAF
KCRG 232331Z 2400/2424 VRB04KT P6SM FEW080
     FM241400 12006KT P6SM FEW050
     FM241800 12012KT P6SM SCT060=

USA.gov is the U.S. government's official web portal to all federal, state and local government web resources and services.